createdAt,value
2022-09-29T00:02:23.228Z,93.69
2022-09-29T00:05:27.933Z,93.53
2022-09-29T00:08:31.150Z,93.72
2022-09-29T00:11:34.351Z,93.75
2022-09-29T00:14:36.906Z,93.72
2022-09-29T00:17:46.613Z,93.72
2022-09-29T00:21:02.640Z,93.72
2022-09-29T00:24:05.650Z,93.65
2022-09-29T00:27:08.092Z,93.80
2022-09-29T00:30:12.135Z,93.77
2022-09-29T00:33:14.628Z,94.20
2022-09-29T00:36:19.293Z,94.22
2022-09-29T00:39:22.040Z,94.36
2022-09-29T00:42:25.064Z,94.64
2022-09-29T00:45:29.018Z,94.65
2022-09-29T00:48:32.798Z,94.90
2022-09-29T00:51:37.338Z,94.88
2022-09-29T00:55:04.222Z,94.83
2022-09-29T00:58:38.263Z,95.00
2022-09-29T01:01:41.091Z,94.85
2022-09-29T01:04:44.252Z,94.78
2022-09-29T01:07:48.810Z,94.75
2022-09-29T01:10:52.993Z,94.75
2022-09-29T01:13:58.705Z,94.76
2022-09-29T01:17:01.777Z,94.86
2022-09-29T01:20:13.549Z,95.47
2022-09-29T01:23:31.198Z,95.56
2022-09-29T01:26:49.425Z,95.64
2022-09-29T01:29:58.058Z,95.56
2022-09-29T01:33:10.214Z,95.66
2022-09-29T01:36:52.906Z,95.49
2022-09-29T01:40:03.983Z,95.43
2022-09-29T01:43:17.937Z,95.47
2022-09-29T01:46:24.999Z,95.36
2022-09-29T01:49:31.764Z,95.49
2022-09-29T01:52:40.931Z,95.41
2022-09-29T01:55:47.599Z,95.35
2022-09-29T01:58:57.748Z,95.75
2022-09-29T02:02:04.402Z,96.09
2022-09-29T02:05:11.007Z,95.89
2022-09-29T02:08:39.811Z,95.97
2022-09-29T02:11:43.154Z,96.29
2022-09-29T02:14:47.809Z,96.30
2022-09-29T02:17:53.146Z,96.06
2022-09-29T02:20:55.586Z,95.97
2022-09-29T02:23:58.746Z,96.15
2022-09-29T02:27:02.840Z,96.47
2022-09-29T02:30:07.901Z,96.39
2022-09-29T02:33:31.311Z,96.43
2022-09-29T02:36:42.892Z,96.38
2022-09-29T02:40:08.864Z,96.22
2022-09-29T02:43:47.647Z,96.71
2022-09-29T02:47:01.897Z,96.91
2022-09-29T02:50:19.903Z,96.72
2022-09-29T02:53:32.923Z,96.54
2022-09-29T02:56:48.213Z,96.95
2022-09-29T03:00:12.803Z,97.05
2022-09-29T03:03:17.271Z,96.83
2022-09-29T03:06:21.592Z,96.94
2022-09-29T03:09:28.573Z,96.75
2022-09-29T03:12:38.009Z,96.59
2022-09-29T03:15:40.919Z,96.83
2022-09-29T03:18:44.180Z,97.03
2022-09-29T03:21:47.175Z,97.20
2022-09-29T03:24:50.104Z,97.13
2022-09-29T03:27:53.054Z,97.50
2022-09-29T03:30:55.835Z,97.57
2022-09-29T03:33:59.084Z,97.77
2022-09-29T03:37:04.234Z,97.86
2022-09-29T03:40:08.146Z,98.01
2022-09-29T03:43:11.919Z,98.12
2022-09-29T03:46:14.833Z,98.35
2022-09-29T03:49:24.236Z,98.41
2022-09-29T03:52:28.171Z,98.33
2022-09-29T03:55:35.035Z,98.22
2022-09-29T03:58:39.653Z,98.29
2022-09-29T04:01:42.612Z,98.47
2022-09-29T04:04:49.003Z,98.49
2022-09-29T04:07:51.936Z,98.46
2022-09-29T04:10:56.324Z,98.54
2022-09-29T04:13:58.838Z,98.55
2022-09-29T04:17:04.076Z,98.57
2022-09-29T04:20:07.922Z,98.62
2022-09-29T04:23:16.253Z,98.65
2022-09-29T04:26:20.879Z,98.60
2022-09-29T04:29:23.903Z,98.70
2022-09-29T04:32:27.826Z,98.80
2022-09-29T04:35:36.094Z,98.86
2022-09-29T04:38:50.766Z,98.82
2022-09-29T04:41:54.634Z,98.89
2022-09-29T04:44:58.627Z,98.92
2022-09-29T04:48:02.453Z,98.71
2022-09-29T04:51:10.812Z,98.75
2022-09-29T04:54:14.435Z,98.74
2022-09-29T04:57:17.219Z,98.62
2022-09-29T05:00:21.878Z,98.70
2022-09-29T05:03:26.057Z,98.64
2022-09-29T05:06:29.893Z,98.44
2022-09-29T05:09:34.452Z,98.53
2022-09-29T05:12:39.904Z,98.57
2022-09-29T05:15:43.874Z,98.52
2022-09-29T05:18:48.870Z,98.52
2022-09-29T05:21:52.549Z,98.52
2022-09-29T05:24:59.656Z,98.67
2022-09-29T05:28:06.272Z,98.76
2022-09-29T05:31:09.803Z,98.47
2022-09-29T05:34:13.889Z,98.35
2022-09-29T05:37:18.897Z,98.29
2022-09-29T05:40:27.824Z,98.05
2022-09-29T05:43:31.509Z,98.00
2022-09-29T05:46:42.733Z,97.98
2022-09-29T05:49:53.388Z,97.97
2022-09-29T05:53:04.274Z,97.94
2022-09-29T05:56:19.960Z,97.99
2022-09-29T05:59:22.902Z,98.03
2022-09-29T06:02:27.128Z,97.94
2022-09-29T06:05:33.155Z,98.04
2022-09-29T06:08:45.913Z,97.96
2022-09-29T06:11:49.841Z,97.90
2022-09-29T06:14:55.366Z,97.84
2022-09-29T06:18:01.825Z,97.94
2022-09-29T06:21:06.973Z,97.79
2022-09-29T06:24:11.535Z,97.73
2022-09-29T06:27:17.819Z,97.70
2022-09-29T06:30:20.744Z,97.70
2022-09-29T06:33:24.280Z,97.72
2022-09-29T06:36:50.609Z,97.67
2022-09-29T06:39:54.021Z,97.37
2022-09-29T06:42:57.887Z,97.29
2022-09-29T06:46:07.962Z,97.27
2022-09-29T06:49:13.874Z,97.34
2022-09-29T06:52:21.025Z,97.02
2022-09-29T06:55:25.587Z,96.76
2022-09-29T06:58:29.397Z,96.56
2022-09-29T07:01:35.194Z,96.31
2022-09-29T07:04:38.308Z,96.02
2022-09-29T07:07:42.202Z,95.71
2022-09-29T07:10:48.433Z,95.30
2022-09-29T07:13:54.443Z,94.81
2022-09-29T07:16:59.273Z,94.69
2022-09-29T07:20:05.878Z,94.40
2022-09-29T07:23:09.239Z,94.39
2022-09-29T07:26:14.045Z,94.02
2022-09-29T07:29:18.090Z,93.81
2022-09-29T07:32:27.658Z,93.65
2022-09-29T07:35:31.196Z,92.91
2022-09-29T07:38:34.901Z,92.46
2022-09-29T07:41:38.084Z,92.58
2022-09-29T07:44:42.105Z,92.40
2022-09-29T07:47:52.018Z,92.49
2022-09-29T07:51:04.033Z,91.73
2022-09-29T07:54:10.015Z,90.99
2022-09-29T07:57:15.974Z,90.99
2022-09-29T08:00:19.594Z,91.51
2022-09-29T08:03:33.794Z,91.64
2022-09-29T08:06:37.990Z,91.08
2022-09-29T08:09:41.594Z,90.65
2022-09-29T08:12:46.064Z,89.50
2022-09-29T08:15:49.366Z,88.51
2022-09-29T08:18:52.343Z,87.05
2022-09-29T08:21:59.278Z,84.91
2022-09-29T08:25:09.497Z,83.36
2022-09-29T08:28:29.160Z,82.24
2022-09-29T08:31:34.793Z,79.80
2022-09-29T08:34:38.267Z,77.38
2022-09-29T08:37:43.177Z,76.22
2022-09-29T08:40:46.319Z,74.92
2022-09-29T08:43:52.547Z,73.67
2022-09-29T08:47:09.951Z,73.54
2022-09-29T08:50:29.879Z,73.51
2022-09-29T08:53:37.310Z,75.34
2022-09-29T08:56:39.931Z,74.10
2022-09-29T08:59:44.974Z,72.33
2022-09-29T09:02:57.245Z,72.11
2022-09-29T09:09:34.214Z,71.44
2022-09-29T09:12:59.133Z,71.34
2022-09-29T09:16:17.148Z,72.06
2022-09-29T09:19:38.387Z,71.49
2022-09-29T09:22:47.926Z,69.86
2022-09-29T09:25:55.587Z,66.69
2022-09-29T09:29:04.840Z,64.78
2022-09-29T09:32:21.803Z,63.72
2022-09-29T09:35:37.930Z,63.95
2022-09-29T09:39:14.984Z,62.99
2022-09-29T09:42:25.192Z,61.59
2022-09-29T09:45:42.713Z,61.14
2022-09-29T09:48:54.116Z,60.36
2022-09-29T09:52:04.990Z,61.47
2022-09-29T09:55:16.858Z,61.22
2022-09-29T09:58:32.034Z,58.96
2022-09-29T10:01:39.022Z,58.92
2022-09-29T10:04:43.053Z,63.00
2022-09-29T10:07:48.835Z,60.93
2022-09-29T10:10:58.996Z,59.41
2022-09-29T10:14:06.584Z,61.44
2022-09-29T10:17:17.998Z,61.42
2022-09-29T10:20:32.669Z,60.41
2022-09-29T10:23:36.837Z,62.21
2022-09-29T10:26:45.694Z,64.01
2022-09-29T10:29:50.927Z,64.97
2022-09-29T10:33:00.210Z,66.50
2022-09-29T10:36:10.470Z,66.14
2022-09-29T10:39:41.020Z,65.00
2022-09-29T10:42:47.049Z,61.09
2022-09-29T10:45:50.786Z,61.30
2022-09-29T10:49:14.842Z,62.24
2022-09-29T10:52:28.990Z,64.75
2022-09-29T10:55:35.860Z,63.62
2022-09-29T10:58:52.595Z,61.93
2022-09-29T11:02:11.985Z,61.14
2022-09-29T11:05:27.897Z,62.72
2022-09-29T11:08:31.849Z,62.89
2022-09-29T11:11:59.934Z,62.25
2022-09-29T11:15:23.662Z,63.51
2022-09-29T11:18:33.931Z,64.17
2022-09-29T11:21:42.980Z,64.64
2022-09-29T11:25:06.126Z,64.49
2022-09-29T11:28:30.548Z,65.39
2022-09-29T11:31:59.371Z,65.51
2022-09-29T11:35:14.288Z,66.27
2022-09-29T11:38:35.859Z,67.69
2022-09-29T11:42:00.766Z,67.75
2022-09-29T11:45:08.517Z,68.61
2022-09-29T11:48:40.045Z,68.26
2022-09-29T11:52:09.012Z,69.15
2022-09-29T11:55:42.882Z,69.80
2022-09-29T11:59:30.818Z,70.29
2022-09-29T12:03:05.603Z,70.08
2022-09-29T12:06:34.904Z,70.52
2022-09-29T12:09:47.406Z,70.79
2022-09-29T12:13:33.873Z,72.27
2022-09-29T12:16:58.026Z,74.58
2022-09-29T12:20:25.089Z,75.86
2022-09-29T12:23:30.176Z,76.19
2022-09-29T12:26:33.835Z,78.76
2022-09-29T12:29:58.874Z,79.87
2022-09-29T12:33:24.220Z,79.95
2022-09-29T12:37:21.264Z,80.11
2022-09-29T12:40:33.808Z,80.28
2022-09-29T12:43:50.006Z,78.73
2022-09-29T12:47:21.880Z,78.51
2022-09-29T12:50:31.825Z,77.70
2022-09-29T12:53:39.091Z,76.63
2022-09-29T12:57:15.352Z,75.86
2022-09-29T13:00:25.081Z,76.20
2022-09-29T13:03:54.429Z,75.33
2022-09-29T13:07:25.840Z,75.00
2022-09-29T13:10:48.476Z,73.91
2022-09-29T13:13:56.583Z,75.28
2022-09-29T13:17:28.920Z,74.55
2022-09-29T13:20:43.902Z,73.88
2022-09-29T13:24:12.270Z,74.15
2022-09-29T13:27:46.024Z,74.47
2022-09-29T13:30:52.030Z,73.69
2022-09-29T13:33:58.124Z,73.01
2022-09-29T13:37:13.440Z,71.95
2022-09-29T13:40:28.454Z,73.98
2022-09-29T13:43:51.291Z,74.08
2022-09-29T13:47:03.784Z,72.70
2022-09-29T13:50:52.793Z,73.21
2022-09-29T13:54:48.933Z,73.49
2022-09-29T13:58:01.219Z,73.56
2022-09-29T14:01:10.929Z,73.04
2022-09-29T14:04:44.630Z,72.27
2022-09-29T14:07:51.265Z,72.81
2022-09-29T14:11:11.920Z,71.74
2022-09-29T14:14:28.201Z,72.40
2022-09-29T14:17:44.915Z,72.45
2022-09-29T14:21:01.095Z,73.19
2022-09-29T14:24:05.863Z,73.13
2022-09-29T14:27:35.909Z,73.36
2022-09-29T14:30:47.201Z,74.09
2022-09-29T14:34:06.066Z,73.73
2022-09-29T14:37:25.459Z,74.54
2022-09-29T14:40:28.611Z,74.38
2022-09-29T14:43:42.891Z,74.58
2022-09-29T14:47:46.239Z,75.01
2022-09-29T14:51:27.916Z,75.05
2022-09-29T14:54:49.897Z,75.06
2022-09-29T14:58:06.023Z,75.87
2022-09-29T15:01:30.125Z,76.18
2022-09-29T15:04:39.890Z,76.15
2022-09-29T15:07:46.902Z,76.86
2022-09-29T15:10:51.914Z,77.20
2022-09-29T15:13:56.877Z,76.82
2022-09-29T15:17:40.064Z,76.10
2022-09-29T15:20:55.194Z,75.56
2022-09-29T15:24:15.880Z,75.88
2022-09-29T15:27:27.897Z,76.69
2022-09-29T15:30:35.936Z,76.45
2022-09-29T15:33:44.174Z,77.29
2022-09-29T15:37:02.787Z,77.46
2022-09-29T15:40:06.782Z,78.05
2022-09-29T15:43:43.037Z,78.55
2022-09-29T15:46:58.896Z,79.54
2022-09-29T15:50:33.829Z,80.47
2022-09-29T15:53:44.951Z,80.29
2022-09-29T15:57:07.851Z,81.47
2022-09-29T16:00:29.983Z,81.77
2022-09-29T16:03:50.833Z,81.93
2022-09-29T16:07:08.413Z,82.11
2022-09-29T16:10:31.937Z,82.51
2022-09-29T16:13:46.808Z,83.65
2022-09-29T16:16:57.369Z,84.25
2022-09-29T16:20:21.985Z,84.45
2022-09-29T16:23:45.936Z,84.73
2022-09-29T16:26:55.183Z,84.71
2022-09-29T16:30:19.872Z,85.17
2022-09-29T16:33:24.534Z,85.60
2022-09-29T16:36:39.169Z,85.97
2022-09-29T16:39:48.081Z,86.87
2022-09-29T16:42:59.132Z,87.41
2022-09-29T16:46:13.891Z,87.79
2022-09-29T16:49:20.335Z,88.08
2022-09-29T16:52:45.340Z,88.23
2022-09-29T16:56:32.928Z,88.11
2022-09-29T16:59:37.876Z,88.19
2022-09-29T17:02:49.029Z,89.06
2022-09-29T17:05:57.880Z,89.60
2022-09-29T17:09:05.350Z,89.92
2022-09-29T17:12:17.048Z,90.14
2022-09-29T17:15:30.570Z,90.47
2022-09-29T17:18:38.971Z,90.56
2022-09-29T17:21:49.071Z,90.58
2022-09-29T17:24:52.662Z,90.53
2022-09-29T17:28:12.504Z,90.64
2022-09-29T17:31:20.590Z,91.07
2022-09-29T17:34:29.704Z,91.01
2022-09-29T17:37:36.414Z,91.06
2022-09-29T17:40:54.917Z,91.05
2022-09-29T17:44:01.922Z,91.12
2022-09-29T17:47:28.534Z,91.36
2022-09-29T17:50:38.904Z,91.81
2022-09-29T17:53:47.849Z,92.33
2022-09-29T17:57:01.514Z,92.63
2022-09-29T18:00:21.958Z,93.08
2022-09-29T18:03:44.796Z,93.30
2022-09-29T18:06:57.072Z,93.57
2022-09-29T18:10:01.386Z,93.84
2022-09-29T18:13:08.140Z,93.90
2022-09-29T18:16:18.272Z,93.67
2022-09-29T18:19:21.497Z,93.54
2022-09-29T18:22:25.891Z,93.29
2022-09-29T18:25:35.076Z,93.18
2022-09-29T18:28:40.623Z,93.10
2022-09-29T18:31:44.899Z,93.16
2022-09-29T18:34:50.123Z,93.16
2022-09-29T18:37:56.352Z,92.93
2022-09-29T18:41:20.291Z,92.79
2022-09-29T18:44:38.923Z,93.11
2022-09-29T18:47:45.100Z,92.78
2022-09-29T18:50:56.895Z,92.99
2022-09-29T18:54:02.201Z,93.77
2022-09-29T18:57:16.889Z,93.60
2022-09-29T19:00:34.905Z,93.38
2022-09-29T19:03:39.663Z,93.19
2022-09-29T19:06:43.314Z,92.92
2022-09-29T19:09:50.969Z,92.80
2022-09-29T19:12:59.067Z,93.21
2022-09-29T19:16:11.911Z,94.05
2022-09-29T19:19:17.979Z,93.41
2022-09-29T19:22:28.972Z,93.46
2022-09-29T19:25:40.247Z,94.24
2022-09-29T19:28:56.820Z,94.62
2022-09-29T19:32:00.888Z,94.44
2022-09-29T19:35:08.976Z,94.14
2022-09-29T19:38:12.658Z,94.10
2022-09-29T19:41:20.371Z,94.18
2022-09-29T19:44:37.888Z,94.59
2022-09-29T19:47:47.062Z,94.92
2022-09-29T19:51:17.161Z,95.21
2022-09-29T19:54:31.899Z,95.37
2022-09-29T19:57:42.586Z,94.80
2022-09-29T20:00:50.022Z,94.91
2022-09-29T20:03:53.277Z,95.26
2022-09-29T20:06:58.090Z,95.44
2022-09-29T20:10:05.859Z,95.53
2022-09-29T20:13:14.863Z,95.93
2022-09-29T20:16:18.877Z,95.75
2022-09-29T20:19:25.144Z,95.43
2022-09-29T20:22:31.852Z,94.86
2022-09-29T20:25:35.107Z,94.49
2022-09-29T20:28:40.237Z,94.28
2022-09-29T20:31:51.831Z,94.42
2022-09-29T20:35:02.812Z,94.61
2022-09-29T20:38:07.373Z,95.31
2022-09-29T20:41:10.957Z,95.30
2022-09-29T20:44:15.845Z,94.90
2022-09-29T20:47:22.131Z,94.70
2022-09-29T20:50:27.975Z,94.47
2022-09-29T20:53:34.235Z,94.40
2022-09-29T20:56:44.280Z,94.05
2022-09-29T20:59:47.440Z,94.03
2022-09-29T21:02:50.516Z,94.53
2022-09-29T21:05:56.841Z,94.52
2022-09-29T21:09:04.993Z,94.44
2022-09-29T21:12:16.307Z,94.47
2022-09-29T21:15:20.923Z,94.52
2022-09-29T21:18:25.016Z,95.05
2022-09-29T21:21:27.784Z,95.07
2022-09-29T21:24:31.899Z,94.77
2022-09-29T21:27:40.835Z,94.88
2022-09-29T21:30:44.888Z,95.59
2022-09-29T21:33:55.119Z,96.05
2022-09-29T21:37:02.442Z,96.34
2022-09-29T21:40:05.947Z,96.64
2022-09-29T21:43:10.883Z,96.57
2022-09-29T21:46:16.179Z,96.28
2022-09-29T21:49:21.238Z,96.29
2022-09-29T21:52:24.890Z,96.13
2022-09-29T21:55:28.472Z,96.52
2022-09-29T21:58:31.502Z,96.51
2022-09-29T22:01:34.886Z,96.73
2022-09-29T22:04:37.839Z,96.84
2022-09-29T22:07:41.140Z,97.11
2022-09-29T22:10:47.821Z,97.10
2022-09-29T22:13:59.051Z,97.41
2022-09-29T22:17:02.127Z,97.42
2022-09-29T22:20:05.401Z,97.08
2022-09-29T22:23:08.198Z,97.20
2022-09-29T22:26:13.999Z,97.64
2022-09-29T22:29:17.084Z,97.79
2022-09-29T22:32:19.978Z,97.69
2022-09-29T22:35:22.745Z,97.61
2022-09-29T22:38:25.755Z,98.10
2022-09-29T22:41:29.237Z,98.04
2022-09-29T22:44:32.852Z,98.00
2022-09-29T22:47:37.169Z,97.94
2022-09-29T22:50:43.726Z,97.82
2022-09-29T22:53:47.009Z,97.60
2022-09-29T22:56:49.654Z,97.55
2022-09-29T22:59:53.160Z,97.59
2022-09-29T23:02:56.101Z,97.57
2022-09-29T23:06:00.047Z,97.89
2022-09-29T23:09:02.917Z,98.02
2022-09-29T23:12:08.027Z,97.97
2022-09-29T23:15:12.000Z,98.02
2022-09-29T23:18:15.009Z,98.00
2022-09-29T23:21:21.381Z,97.85
2022-09-29T23:24:24.689Z,97.94
2022-09-29T23:27:30.099Z,98.53
2022-09-29T23:30:36.327Z,98.36
2022-09-29T23:33:38.968Z,98.19
2022-09-29T23:36:42.198Z,98.13
2022-09-29T23:39:46.367Z,98.13
2022-09-29T23:42:51.575Z,98.12
2022-09-29T23:45:56.290Z,98.09
2022-09-29T23:49:02.883Z,97.87
2022-09-29T23:52:06.100Z,97.76
2022-09-29T23:55:10.765Z,97.77
2022-09-29T23:58:15.143Z,98.14
